sensor_id;sensor_type;location;lat;lon;timestamp;temperature;humidity
52495;DHT22;38405;53.212;5.660;2023-05-10T00:01:23;11.90;99.90
52495;DHT22;38405;53.212;5.660;2023-05-10T00:03:48;11.90;99.90
52495;DHT22;38405;53.212;5.660;2023-05-10T00:06:14;11.90;99.90
52495;DHT22;38405;53.212;5.660;2023-05-10T00:08:40;11.90;99.90
52495;DHT22;38405;53.212;5.660;2023-05-10T00:11:06;11.80;99.90
52495;DHT22;38405;53.212;5.660;2023-05-10T00:13:32;11.80;99.90
52495;DHT22;38405;53.212;5.660;2023-05-10T00:15:57;11.80;99.90
52495;DHT22;38405;53.212;5.660;2023-05-10T00:18:23;11.80;99.90
52495;DHT22;38405;53.212;5.660;2023-05-10T00:20:49;11.80;99.90
52495;DHT22;38405;53.212;5.660;2023-05-10T00:23:14;11.80;99.90
52495;DHT22;38405;53.212;5.660;2023-05-10T00:25:40;11.80;99.90
52495;DHT22;38405;53.212;5.660;2023-05-10T00:28:06;11.70;99.90
52495;DHT22;38405;53.212;5.660;2023-05-10T00:30:31;11.70;99.90
52495;DHT22;38405;53.212;5.660;2023-05-10T00:32:57;11.70;99.90
52495;DHT22;38405;53.212;5.660;2023-05-10T00:35:22;11.70;99.90
52495;DHT22;38405;53.212;5.660;2023-05-10T00:37:48;11.70;99.90
52495;DHT22;38405;53.212;5.660;2023-05-10T00:40:15;11.80;99.90
52495;DHT22;38405;53.212;5.660;2023-05-10T00:42:40;11.70;99.90
52495;DHT22;38405;53.212;5.660;2023-05-10T00:45:07;11.70;99.90
52495;DHT22;38405;53.212;5.660;2023-05-10T00:47:32;11.60;99.90
52495;DHT22;38405;53.212;5.660;2023-05-10T00:49:59;11.60;99.90
52495;DHT22;38405;53.212;5.660;2023-05-10T00:52:28;11.60;99.90
52495;DHT22;38405;53.212;5.660;2023-05-10T00:54:54;11.70;99.90
52495;DHT22;38405;53.212;5.660;2023-05-10T00:57:21;11.70;99.90
52495;DHT22;38405;53.212;5.660;2023-05-10T00:59:47;11.70;99.90
52495;DHT22;38405;53.212;5.660;2023-05-10T01:02:13;11.70;99.90
52495;DHT22;38405;53.212;5.660;2023-05-10T01:04:39;11.70;99.90
52495;DHT22;38405;53.212;5.660;2023-05-10T01:07:05;11.70;99.90
52495;DHT22;38405;53.212;5.660;2023-05-10T01:09:31;11.70;99.90
52495;DHT22;38405;53.212;5.660;2023-05-10T01:11:57;11.70;99.90
52495;DHT22;38405;53.212;5.660;2023-05-10T01:14:23;11.70;99.90
52495;DHT22;38405;53.212;5.660;2023-05-10T01:16:50;11.70;99.90
52495;DHT22;38405;53.212;5.660;2023-05-10T01:19:19;11.60;99.90
52495;DHT22;38405;53.212;5.660;2023-05-10T01:22:05;11.70;99.90
52495;DHT22;38405;53.212;5.660;2023-05-10T01:25:31;11.70;99.90
52495;DHT22;38405;53.212;5.660;2023-05-10T01:33:18;11.80;99.90
52495;DHT22;38405;53.212;5.660;2023-05-10T01:41:43;11.80;99.90
52495;DHT22;38405;53.212;5.660;2023-05-10T01:44:31;11.80;99.90
52495;DHT22;38405;53.212;5.660;2023-05-10T01:47:04;11.80;99.90
52495;DHT22;38405;53.212;5.660;2023-05-10T01:49:37;11.80;99.90
52495;DHT22;38405;53.212;5.660;2023-05-10T01:52:16;11.80;99.90
52495;DHT22;38405;53.212;5.660;2023-05-10T01:55:06;11.90;99.90
52495;DHT22;38405;53.212;5.660;2023-05-10T01:57:35;11.80;99.90
52495;DHT22;38405;53.212;5.660;2023-05-10T02:00:04;11.80;99.90
52495;DHT22;38405;53.212;5.660;2023-05-10T02:02:34;11.80;99.90
52495;DHT22;38405;53.212;5.660;2023-05-10T02:05:03;11.80;99.90
52495;DHT22;38405;53.212;5.660;2023-05-10T02:07:29;11.90;99.90
52495;DHT22;38405;53.212;5.660;2023-05-10T02:09:56;11.90;99.90
52495;DHT22;38405;53.212;5.660;2023-05-10T02:12:24;11.90;99.90
52495;DHT22;38405;53.212;5.660;2023-05-10T02:14:51;11.90;99.90
52495;DHT22;38405;53.212;5.660;2023-05-10T02:17:18;11.90;99.90
52495;DHT22;38405;53.212;5.660;2023-05-10T02:19:45;11.90;99.90
52495;DHT22;38405;53.212;5.660;2023-05-10T02:22:12;11.90;99.90
52495;DHT22;38405;53.212;5.660;2023-05-10T02:24:39;11.90;99.90
52495;DHT22;38405;53.212;5.660;2023-05-10T02:27:06;11.90;99.90
52495;DHT22;38405;53.212;5.660;2023-05-10T02:29:32;11.90;99.90
52495;DHT22;38405;53.212;5.660;2023-05-10T02:31:58;11.90;99.90
52495;DHT22;38405;53.212;5.660;2023-05-10T02:34:28;11.90;99.90
52495;DHT22;38405;53.212;5.660;2023-05-10T02:36:58;11.90;99.90
52495;DHT22;38405;53.212;5.660;2023-05-10T02:39:26;11.90;99.90
52495;DHT22;38405;53.212;5.660;2023-05-10T02:41:54;11.90;99.90
52495;DHT22;38405;53.212;5.660;2023-05-10T02:44:21;11.80;99.90
52495;DHT22;38405;53.212;5.660;2023-05-10T02:46:48;11.80;99.90
52495;DHT22;38405;53.212;5.660;2023-05-10T02:49:14;11.80;99.90
52495;DHT22;38405;53.212;5.660;2023-05-10T02:51:47;11.80;99.90
52495;DHT22;38405;53.212;5.660;2023-05-10T02:54:37;11.70;99.90
52495;DHT22;38405;53.212;5.660;2023-05-10T02:57:05;11.70;99.90
52495;DHT22;38405;53.212;5.660;2023-05-10T02:59:32;11.70;99.90
52495;DHT22;38405;53.212;5.660;2023-05-10T03:01:59;11.70;99.90
52495;DHT22;38405;53.212;5.660;2023-05-10T03:04:25;11.70;99.90
52495;DHT22;38405;53.212;5.660;2023-05-10T03:06:51;11.70;99.90
52495;DHT22;38405;53.212;5.660;2023-05-10T03:09:18;11.80;99.90
52495;DHT22;38405;53.212;5.660;2023-05-10T03:11:56;11.70;99.90
52495;DHT22;38405;53.212;5.660;2023-05-10T03:17:07;11.70;99.90
52495;DHT22;38405;53.212;5.660;2023-05-10T03:19:56;11.70;99.90
52495;DHT22;38405;53.212;5.660;2023-05-10T03:22:32;11.70;99.90
52495;DHT22;38405;53.212;5.660;2023-05-10T03:25:00;11.70;99.90
52495;DHT22;38405;53.212;5.660;2023-05-10T03:27:30;11.70;99.90
52495;DHT22;38405;53.212;5.660;2023-05-10T03:29:59;11.70;99.90
52495;DHT22;38405;53.212;5.660;2023-05-10T03:32:29;11.80;99.90
52495;DHT22;38405;53.212;5.660;2023-05-10T03:34:55;11.70;99.90
52495;DHT22;38405;53.212;5.660;2023-05-10T03:37:21;11.70;99.90
52495;DHT22;38405;53.212;5.660;2023-05-10T03:39:46;11.60;99.90
52495;DHT22;38405;53.212;5.660;2023-05-10T03:42:12;11.60;99.90
52495;DHT22;38405;53.212;5.660;2023-05-10T03:44:39;11.70;99.90
52495;DHT22;38405;53.212;5.660;2023-05-10T03:47:05;11.60;99.90
52495;DHT22;38405;53.212;5.660;2023-05-10T03:49:31;11.70;99.90
52495;DHT22;38405;53.212;5.660;2023-05-10T03:51:56;11.70;99.90
52495;DHT22;38405;53.212;5.660;2023-05-10T03:54:22;11.60;99.90
52495;DHT22;38405;53.212;5.660;2023-05-10T03:56:47;11.60;99.90
52495;DHT22;38405;53.212;5.660;2023-05-10T03:59:13;11.70;99.90
52495;DHT22;38405;53.212;5.660;2023-05-10T04:01:39;11.70;99.90
52495;DHT22;38405;53.212;5.660;2023-05-10T04:04:04;11.70;99.90
52495;DHT22;38405;53.212;5.660;2023-05-10T04:06:30;11.60;99.90
52495;DHT22;38405;53.212;5.660;2023-05-10T04:08:56;11.70;99.90
52495;DHT22;38405;53.212;5.660;2023-05-10T04:11:25;11.70;99.90
52495;DHT22;38405;53.212;5.660;2023-05-10T04:13:50;11.70;99.90
52495;DHT22;38405;53.212;5.660;2023-05-10T04:16:16;11.70;99.90
52495;DHT22;38405;53.212;5.660;2023-05-10T04:18:42;11.60;99.90
52495;DHT22;38405;53.212;5.660;2023-05-10T04:21:11;11.60;99.90
52495;DHT22;38405;53.212;5.660;2023-05-10T04:23:38;11.70;99.90
52495;DHT22;38405;53.212;5.660;2023-05-10T04:26:03;11.70;99.90
52495;DHT22;38405;53.212;5.660;2023-05-10T04:28:29;11.70;99.90
52495;DHT22;38405;53.212;5.660;2023-05-10T04:31:06;11.70;99.90
52495;DHT22;38405;53.212;5.660;2023-05-10T04:33:32;11.70;99.90
52495;DHT22;38405;53.212;5.660;2023-05-10T04:35:58;11.80;99.90
52495;DHT22;38405;53.212;5.660;2023-05-10T04:38:24;11.70;99.90
52495;DHT22;38405;53.212;5.660;2023-05-10T04:40:50;11.70;99.90
52495;DHT22;38405;53.212;5.660;2023-05-10T04:43:15;11.70;99.90
52495;DHT22;38405;53.212;5.660;2023-05-10T04:45:41;11.70;99.90
52495;DHT22;38405;53.212;5.660;2023-05-10T04:48:07;11.80;99.90
52495;DHT22;38405;53.212;5.660;2023-05-10T04:50:33;11.80;99.90
52495;DHT22;38405;53.212;5.660;2023-05-10T04:52:58;11.80;99.90
52495;DHT22;38405;53.212;5.660;2023-05-10T04:55:24;11.80;99.90
52495;DHT22;38405;53.212;5.660;2023-05-10T04:57:50;11.80;99.90
52495;DHT22;38405;53.212;5.660;2023-05-10T05:00:16;11.80;99.90
52495;DHT22;38405;53.212;5.660;2023-05-10T05:02:45;11.80;99.90
52495;DHT22;38405;53.212;5.660;2023-05-10T05:05:12;11.80;99.90
52495;DHT22;38405;53.212;5.660;2023-05-10T05:07:37;11.90;99.90
52495;DHT22;38405;53.212;5.660;2023-05-10T05:10:07;11.80;99.90
52495;DHT22;38405;53.212;5.660;2023-05-10T05:12:34;11.90;99.90
52495;DHT22;38405;53.212;5.660;2023-05-10T05:15:00;11.90;99.90
52495;DHT22;38405;53.212;5.660;2023-05-10T05:17:26;11.90;99.90
52495;DHT22;38405;53.212;5.660;2023-05-10T05:19:51;11.80;99.90
52495;DHT22;38405;53.212;5.660;2023-05-10T05:22:17;11.90;99.90
52495;DHT22;38405;53.212;5.660;2023-05-10T05:24:44;11.90;99.90
52495;DHT22;38405;53.212;5.660;2023-05-10T05:27:10;11.90;99.90
52495;DHT22;38405;53.212;5.660;2023-05-10T05:29:36;11.90;99.90
52495;DHT22;38405;53.212;5.660;2023-05-10T05:32:01;12.00;99.90
52495;DHT22;38405;53.212;5.660;2023-05-10T05:34:27;12.00;99.90
52495;DHT22;38405;53.212;5.660;2023-05-10T05:36:53;12.00;99.90
52495;DHT22;38405;53.212;5.660;2023-05-10T05:39:19;12.00;99.90
52495;DHT22;38405;53.212;5.660;2023-05-10T05:41:45;12.00;99.90
52495;DHT22;38405;53.212;5.660;2023-05-10T05:44:13;12.10;99.90
52495;DHT22;38405;53.212;5.660;2023-05-10T05:46:38;12.10;99.90
52495;DHT22;38405;53.212;5.660;2023-05-10T05:49:04;12.10;99.90
52495;DHT22;38405;53.212;5.660;2023-05-10T05:51:30;12.00;99.90
52495;DHT22;38405;53.212;5.660;2023-05-10T05:53:56;12.00;99.90
52495;DHT22;38405;53.212;5.660;2023-05-10T05:56:22;12.10;99.90
52495;DHT22;38405;53.212;5.660;2023-05-10T05:58:52;12.00;99.90
52495;DHT22;38405;53.212;5.660;2023-05-10T06:01:18;12.10;99.90
52495;DHT22;38405;53.212;5.660;2023-05-10T06:03:44;12.10;99.90
52495;DHT22;38405;53.212;5.660;2023-05-10T06:06:09;12.10;99.90
52495;DHT22;38405;53.212;5.660;2023-05-10T06:08:35;12.20;99.90
52495;DHT22;38405;53.212;5.660;2023-05-10T06:11:01;12.20;99.90
52495;DHT22;38405;53.212;5.660;2023-05-10T06:13:26;12.20;99.90
52495;DHT22;38405;53.212;5.660;2023-05-10T06:15:58;12.20;99.90
52495;DHT22;38405;53.212;5.660;2023-05-10T06:18:24;12.20;99.90
52495;DHT22;38405;53.212;5.660;2023-05-10T06:20:50;12.20;99.90
52495;DHT22;38405;53.212;5.660;2023-05-10T06:23:15;12.20;99.90
52495;DHT22;38405;53.212;5.660;2023-05-10T06:25:41;12.20;99.90
52495;DHT22;38405;53.212;5.660;2023-05-10T06:28:07;12.30;99.90
52495;DHT22;38405;53.212;5.660;2023-05-10T06:30:32;12.30;99.90
52495;DHT22;38405;53.212;5.660;2023-05-10T06:33:00;12.30;99.90
52495;DHT22;38405;53.212;5.660;2023-05-10T06:35:26;12.30;99.90
52495;DHT22;38405;53.212;5.660;2023-05-10T06:37:52;12.30;99.90
52495;DHT22;38405;53.212;5.660;2023-05-10T06:40:18;12.30;99.90
52495;DHT22;38405;53.212;5.660;2023-05-10T06:42:43;12.30;99.90
52495;DHT22;38405;53.212;5.660;2023-05-10T06:45:10;12.30;99.90
52495;DHT22;38405;53.212;5.660;2023-05-10T06:47:36;12.30;99.90
52495;DHT22;38405;53.212;5.660;2023-05-10T06:50:02;12.40;99.90
52495;DHT22;38405;53.212;5.660;2023-05-10T06:52:28;12.40;99.90
52495;DHT22;38405;53.212;5.660;2023-05-10T06:54:54;12.40;99.90
52495;DHT22;38405;53.212;5.660;2023-05-10T06:57:19;12.40;99.90
52495;DHT22;38405;53.212;5.660;2023-05-10T06:59:46;12.40;99.90
52495;DHT22;38405;53.212;5.660;2023-05-10T07:02:11;12.40;99.90
52495;DHT22;38405;53.212;5.660;2023-05-10T07:04:37;12.40;99.90
52495;DHT22;38405;53.212;5.660;2023-05-10T07:07:03;12.50;99.90
52495;DHT22;38405;53.212;5.660;2023-05-10T07:09:28;12.50;99.90
52495;DHT22;38405;53.212;5.660;2023-05-10T07:11:55;12.60;99.90
52495;DHT22;38405;53.212;5.660;2023-05-10T07:14:23;12.60;99.90
52495;DHT22;38405;53.212;5.660;2023-05-10T07:16:48;12.50;99.90
52495;DHT22;38405;53.212;5.660;2023-05-10T07:19:14;12.50;99.90
52495;DHT22;38405;53.212;5.660;2023-05-10T07:21:40;12.50;99.90
52495;DHT22;38405;53.212;5.660;2023-05-10T07:24:07;12.60;99.90
52495;DHT22;38405;53.212;5.660;2023-05-10T07:26:33;12.60;99.90
52495;DHT22;38405;53.212;5.660;2023-05-10T07:28:59;12.70;99.90
52495;DHT22;38405;53.212;5.660;2023-05-10T07:31:24;12.80;99.90
52495;DHT22;38405;53.212;5.660;2023-05-10T07:33:50;12.90;99.90
52495;DHT22;38405;53.212;5.660;2023-05-10T07:36:15;13.10;99.90
52495;DHT22;38405;53.212;5.660;2023-05-10T07:38:41;13.30;99.90
52495;DHT22;38405;53.212;5.660;2023-05-10T07:41:07;13.40;99.90
52495;DHT22;38405;53.212;5.660;2023-05-10T07:43:32;13.50;99.90
52495;DHT22;38405;53.212;5.660;2023-05-10T07:46:01;13.60;99.90
52495;DHT22;38405;53.212;5.660;2023-05-10T07:48:26;13.50;99.90
52495;DHT22;38405;53.212;5.660;2023-05-10T07:50:52;13.60;99.90
52495;DHT22;38405;53.212;5.660;2023-05-10T07:53:18;13.60;99.90
52495;DHT22;38405;53.212;5.660;2023-05-10T07:55:44;13.60;99.90
52495;DHT22;38405;53.212;5.660;2023-05-10T07:58:10;13.50;99.90
52495;DHT22;38405;53.212;5.660;2023-05-10T08:00:36;13.50;99.90
52495;DHT22;38405;53.212;5.660;2023-05-10T08:03:04;13.50;99.90
52495;DHT22;38405;53.212;5.660;2023-05-10T08:05:30;13.60;99.90
52495;DHT22;38405;53.212;5.660;2023-05-10T08:07:56;13.60;99.90
52495;DHT22;38405;53.212;5.660;2023-05-10T08:10:22;13.60;99.90
52495;DHT22;38405;53.212;5.660;2023-05-10T08:12:47;13.60;99.90
52495;DHT22;38405;53.212;5.660;2023-05-10T08:15:13;13.60;99.90
52495;DHT22;38405;53.212;5.660;2023-05-10T08:17:38;13.60;99.90
52495;DHT22;38405;53.212;5.660;2023-05-10T08:20:05;13.60;99.90
52495;DHT22;38405;53.212;5.660;2023-05-10T08:22:30;13.50;99.90
52495;DHT22;38405;53.212;5.660;2023-05-10T08:24:56;13.60;99.90
52495;DHT22;38405;53.212;5.660;2023-05-10T08:27:22;13.60;99.90
52495;DHT22;38405;53.212;5.660;2023-05-10T08:29:47;13.60;99.90
52495;DHT22;38405;53.212;5.660;2023-05-10T08:32:13;13.80;99.90
52495;DHT22;38405;53.212;5.660;2023-05-10T08:34:39;13.70;99.90
52495;DHT22;38405;53.212;5.660;2023-05-10T08:37:04;13.80;99.90
52495;DHT22;38405;53.212;5.660;2023-05-10T08:39:34;13.80;99.90
52495;DHT22;38405;53.212;5.660;2023-05-10T08:42:02;13.90;99.90
52495;DHT22;38405;53.212;5.660;2023-05-10T08:44:30;13.90;99.90
52495;DHT22;38405;53.212;5.660;2023-05-10T08:46:56;14.00;99.90
52495;DHT22;38405;53.212;5.660;2023-05-10T08:49:23;14.10;99.90
52495;DHT22;38405;53.212;5.660;2023-05-10T08:51:54;14.10;99.90
52495;DHT22;38405;53.212;5.660;2023-05-10T08:54:21;14.20;99.90
52495;DHT22;38405;53.212;5.660;2023-05-10T08:56:47;14.30;99.90
52495;DHT22;38405;53.212;5.660;2023-05-10T08:59:13;14.30;99.90
52495;DHT22;38405;53.212;5.660;2023-05-10T09:01:40;14.40;99.90
52495;DHT22;38405;53.212;5.660;2023-05-10T09:04:07;14.40;99.90
52495;DHT22;38405;53.212;5.660;2023-05-10T09:06:33;14.50;99.90
52495;DHT22;38405;53.212;5.660;2023-05-10T09:08:59;14.40;99.90
52495;DHT22;38405;53.212;5.660;2023-05-10T09:11:26;14.30;99.90
52495;DHT22;38405;53.212;5.660;2023-05-10T09:13:55;14.30;99.90
52495;DHT22;38405;53.212;5.660;2023-05-10T09:16:21;14.30;99.90
52495;DHT22;38405;53.212;5.660;2023-05-10T09:18:47;14.40;99.90
52495;DHT22;38405;53.212;5.660;2023-05-10T09:21:13;14.50;99.90
52495;DHT22;38405;53.212;5.660;2023-05-10T09:23:43;14.60;99.90
52495;DHT22;38405;53.212;5.660;2023-05-10T09:26:09;14.50;99.90
52495;DHT22;38405;53.212;5.660;2023-05-10T09:31:18;14.60;99.90
52495;DHT22;38405;53.212;5.660;2023-05-10T09:33:44;14.50;99.90
52495;DHT22;38405;53.212;5.660;2023-05-10T09:36:11;14.40;99.90
52495;DHT22;38405;53.212;5.660;2023-05-10T09:38:51;14.40;99.90
52495;DHT22;38405;53.212;5.660;2023-05-10T09:41:23;14.30;99.90
52495;DHT22;38405;53.212;5.660;2023-05-10T09:43:50;14.30;99.90
52495;DHT22;38405;53.212;5.660;2023-05-10T09:46:20;14.30;99.90
52495;DHT22;38405;53.212;5.660;2023-05-10T09:48:47;14.40;99.90
52495;DHT22;38405;53.212;5.660;2023-05-10T09:51:20;14.50;99.90
52495;DHT22;38405;53.212;5.660;2023-05-10T09:53:46;14.60;99.90
52495;DHT22;38405;53.212;5.660;2023-05-10T09:56:11;14.50;99.90
52495;DHT22;38405;53.212;5.660;2023-05-10T09:58:37;14.50;99.90
52495;DHT22;38405;53.212;5.660;2023-05-10T10:01:03;14.60;99.90
52495;DHT22;38405;53.212;5.660;2023-05-10T10:03:30;14.60;99.90
52495;DHT22;38405;53.212;5.660;2023-05-10T10:05:55;14.70;99.90
52495;DHT22;38405;53.212;5.660;2023-05-10T10:08:22;14.90;99.90
52495;DHT22;38405;53.212;5.660;2023-05-10T10:10:47;15.10;99.90
52495;DHT22;38405;53.212;5.660;2023-05-10T10:13:14;15.20;99.90
52495;DHT22;38405;53.212;5.660;2023-05-10T10:15:41;15.40;99.90
52495;DHT22;38405;53.212;5.660;2023-05-10T10:18:07;15.60;99.90
52495;DHT22;38405;53.212;5.660;2023-05-10T10:20:37;15.90;99.90
52495;DHT22;38405;53.212;5.660;2023-05-10T10:23:03;16.20;99.90
52495;DHT22;38405;53.212;5.660;2023-05-10T10:25:29;16.40;99.90
52495;DHT22;38405;53.212;5.660;2023-05-10T10:27:59;16.50;99.90
52495;DHT22;38405;53.212;5.660;2023-05-10T10:30:41;16.50;99.90
52495;DHT22;38405;53.212;5.660;2023-05-10T10:35:59;16.80;99.90
52495;DHT22;38405;53.212;5.660;2023-05-10T10:38:25;17.20;99.90
52495;DHT22;38405;53.212;5.660;2023-05-10T10:41:12;17.50;99.90
52495;DHT22;38405;53.212;5.660;2023-05-10T10:47:21;17.70;99.90
52495;DHT22;38405;53.212;5.660;2023-05-10T10:50:06;17.60;99.90
52495;DHT22;38405;53.212;5.660;2023-05-10T10:52:37;17.60;99.90
52495;DHT22;38405;53.212;5.660;2023-05-10T11:00:30;17.70;99.90
52495;DHT22;38405;53.212;5.660;2023-05-10T11:03:09;17.70;99.90
52495;DHT22;38405;53.212;5.660;2023-05-10T11:05:42;17.50;99.90
52495;DHT22;38405;53.212;5.660;2023-05-10T11:08:09;17.60;99.90
52495;DHT22;38405;53.212;5.660;2023-05-10T11:10:35;17.50;99.90
52495;DHT22;38405;53.212;5.660;2023-05-10T11:13:09;17.60;99.90
52495;DHT22;38405;53.212;5.660;2023-05-10T11:15:36;17.60;99.90
52495;DHT22;38405;53.212;5.660;2023-05-10T11:18:26;17.60;99.90
52495;DHT22;38405;53.212;5.660;2023-05-10T11:21:00;17.70;99.90
52495;DHT22;38405;53.212;5.660;2023-05-10T11:23:33;17.60;99.90
52495;DHT22;38405;53.212;5.660;2023-05-10T11:26:13;17.50;99.90
52495;DHT22;38405;53.212;5.660;2023-05-10T11:28:46;17.30;99.90
52495;DHT22;38405;53.212;5.660;2023-05-10T11:31:19;17.20;99.90
52495;DHT22;38405;53.212;5.660;2023-05-10T11:33:48;17.00;99.90
52495;DHT22;38405;53.212;5.660;2023-05-10T11:36:16;17.00;99.90
52495;DHT22;38405;53.212;5.660;2023-05-10T11:38:42;17.10;99.90
52495;DHT22;38405;53.212;5.660;2023-05-10T11:41:11;17.10;99.90
52495;DHT22;38405;53.212;5.660;2023-05-10T11:43:39;17.30;99.90
52495;DHT22;38405;53.212;5.660;2023-05-10T11:46:10;17.50;99.90
52495;DHT22;38405;53.212;5.660;2023-05-10T11:48:36;17.60;99.90
52495;DHT22;38405;53.212;5.660;2023-05-10T11:51:02;17.80;99.90
52495;DHT22;38405;53.212;5.660;2023-05-10T11:53:30;17.90;99.90
52495;DHT22;38405;53.212;5.660;2023-05-10T11:56:06;18.00;99.90
52495;DHT22;38405;53.212;5.660;2023-05-10T11:58:32;18.10;99.90
52495;DHT22;38405;53.212;5.660;2023-05-10T12:01:00;18.50;99.90
52495;DHT22;38405;53.212;5.660;2023-05-10T12:03:27;18.60;99.90
52495;DHT22;38405;53.212;5.660;2023-05-10T12:05:56;18.70;99.90
52495;DHT22;38405;53.212;5.660;2023-05-10T12:08:27;18.80;99.90
52495;DHT22;38405;53.212;5.660;2023-05-10T12:11:05;18.90;99.90
52495;DHT22;38405;53.212;5.660;2023-05-10T12:13:31;19.00;99.90
52495;DHT22;38405;53.212;5.660;2023-05-10T12:15:58;19.30;99.90
52495;DHT22;38405;53.212;5.660;2023-05-10T12:18:24;19.30;99.90
52495;DHT22;38405;53.212;5.660;2023-05-10T12:20:54;19.10;99.90
52495;DHT22;38405;53.212;5.660;2023-05-10T12:23:20;19.00;99.90
52495;DHT22;38405;53.212;5.660;2023-05-10T12:25:46;19.00;99.90
52495;DHT22;38405;53.212;5.660;2023-05-10T12:28:12;19.10;99.90
52495;DHT22;38405;53.212;5.660;2023-05-10T12:30:38;19.20;99.90
52495;DHT22;38405;53.212;5.660;2023-05-10T12:33:14;19.10;99.90
52495;DHT22;38405;53.212;5.660;2023-05-10T12:35:53;18.90;99.90
52495;DHT22;38405;53.212;5.660;2023-05-10T12:38:32;18.70;99.90
52495;DHT22;38405;53.212;5.660;2023-05-10T12:40:59;18.70;99.90
52495;DHT22;38405;53.212;5.660;2023-05-10T12:43:25;18.70;99.90
52495;DHT22;38405;53.212;5.660;2023-05-10T12:45:51;18.80;99.90
52495;DHT22;38405;53.212;5.660;2023-05-10T12:48:16;18.90;99.90
52495;DHT22;38405;53.212;5.660;2023-05-10T12:50:42;19.10;99.90
52495;DHT22;38405;53.212;5.660;2023-05-10T12:53:08;19.10;99.90
52495;DHT22;38405;53.212;5.660;2023-05-10T12:55:34;19.10;99.90
52495;DHT22;38405;53.212;5.660;2023-05-10T12:57:59;19.20;99.90
52495;DHT22;38405;53.212;5.660;2023-05-10T13:00:25;19.20;99.90
52495;DHT22;38405;53.212;5.660;2023-05-10T13:02:51;19.20;99.90
52495;DHT22;38405;53.212;5.660;2023-05-10T13:05:17;19.10;99.90
52495;DHT22;38405;53.212;5.660;2023-05-10T13:07:43;19.20;99.90
52495;DHT22;38405;53.212;5.660;2023-05-10T13:10:09;19.20;99.90
52495;DHT22;38405;53.212;5.660;2023-05-10T13:12:35;19.30;99.90
52495;DHT22;38405;53.212;5.660;2023-05-10T13:15:01;19.00;99.90
52495;DHT22;38405;53.212;5.660;2023-05-10T13:17:28;18.80;99.90
52495;DHT22;38405;53.212;5.660;2023-05-10T13:19:54;18.50;99.90
52495;DHT22;38405;53.212;5.660;2023-05-10T13:22:20;18.50;99.90
52495;DHT22;38405;53.212;5.660;2023-05-10T13:24:46;18.60;99.90
52495;DHT22;38405;53.212;5.660;2023-05-10T13:27:11;18.70;99.90
52495;DHT22;38405;53.212;5.660;2023-05-10T13:29:37;18.80;99.90
52495;DHT22;38405;53.212;5.660;2023-05-10T13:32:03;18.60;99.90
52495;DHT22;38405;53.212;5.660;2023-05-10T13:34:28;18.50;99.90
52495;DHT22;38405;53.212;5.660;2023-05-10T13:36:54;18.40;99.90
52495;DHT22;38405;53.212;5.660;2023-05-10T13:39:21;18.20;99.90
52495;DHT22;38405;53.212;5.660;2023-05-10T13:41:47;18.00;99.90
52495;DHT22;38405;53.212;5.660;2023-05-10T13:44:13;17.90;99.90
52495;DHT22;38405;53.212;5.660;2023-05-10T13:46:40;17.90;99.90
52495;DHT22;38405;53.212;5.660;2023-05-10T13:49:06;18.00;99.90
52495;DHT22;38405;53.212;5.660;2023-05-10T13:51:33;18.00;99.90
52495;DHT22;38405;53.212;5.660;2023-05-10T13:53:59;18.10;99.90
52495;DHT22;38405;53.212;5.660;2023-05-10T13:56:24;18.10;99.90
52495;DHT22;38405;53.212;5.660;2023-05-10T13:58:50;18.10;99.90
52495;DHT22;38405;53.212;5.660;2023-05-10T14:01:16;18.30;99.90
52495;DHT22;38405;53.212;5.660;2023-05-10T14:03:42;18.50;99.90
52495;DHT22;38405;53.212;5.660;2023-05-10T14:06:08;18.50;99.90
52495;DHT22;38405;53.212;5.660;2023-05-10T14:08:34;18.30;99.90
52495;DHT22;38405;53.212;5.660;2023-05-10T14:11:00;18.20;99.90
52495;DHT22;38405;53.212;5.660;2023-05-10T14:13:26;18.10;99.90
52495;DHT22;38405;53.212;5.660;2023-05-10T14:15:53;17.90;99.90
52495;DHT22;38405;53.212;5.660;2023-05-10T14:18:19;17.80;99.90
52495;DHT22;38405;53.212;5.660;2023-05-10T14:20:45;17.60;99.90
52495;DHT22;38405;53.212;5.660;2023-05-10T14:23:10;17.60;99.90
52495;DHT22;38405;53.212;5.660;2023-05-10T14:25:37;17.50;99.90
52495;DHT22;38405;53.212;5.660;2023-05-10T14:28:03;17.40;99.90
52495;DHT22;38405;53.212;5.660;2023-05-10T14:30:29;17.30;99.90
52495;DHT22;38405;53.212;5.660;2023-05-10T14:32:55;17.20;99.90
52495;DHT22;38405;53.212;5.660;2023-05-10T14:35:23;17.10;99.90
52495;DHT22;38405;53.212;5.660;2023-05-10T14:37:49;17.00;99.90
52495;DHT22;38405;53.212;5.660;2023-05-10T14:40:15;16.90;99.90
52495;DHT22;38405;53.212;5.660;2023-05-10T14:42:42;16.90;99.90
52495;DHT22;38405;53.212;5.660;2023-05-10T14:45:08;16.90;99.90
52495;DHT22;38405;53.212;5.660;2023-05-10T14:47:34;16.90;99.90
52495;DHT22;38405;53.212;5.660;2023-05-10T14:49:59;16.90;99.90
52495;DHT22;38405;53.212;5.660;2023-05-10T14:52:25;16.90;99.90
52495;DHT22;38405;53.212;5.660;2023-05-10T14:54:51;16.90;99.90
52495;DHT22;38405;53.212;5.660;2023-05-10T14:57:17;17.00;99.90
52495;DHT22;38405;53.212;5.660;2023-05-10T14:59:42;16.90;99.90
52495;DHT22;38405;53.212;5.660;2023-05-10T15:02:08;16.80;99.90
52495;DHT22;38405;53.212;5.660;2023-05-10T15:04:34;16.70;99.90
52495;DHT22;38405;53.212;5.660;2023-05-10T15:07:00;16.70;99.90
52495;DHT22;38405;53.212;5.660;2023-05-10T15:09:26;16.70;99.90
52495;DHT22;38405;53.212;5.660;2023-05-10T15:11:53;16.70;99.90
52495;DHT22;38405;53.212;5.660;2023-05-10T15:14:19;16.60;99.90
52495;DHT22;38405;53.212;5.660;2023-05-10T15:16:44;16.60;99.90
52495;DHT22;38405;53.212;5.660;2023-05-10T15:19:10;16.60;99.90
52495;DHT22;38405;53.212;5.660;2023-05-10T15:21:36;16.60;99.90
52495;DHT22;38405;53.212;5.660;2023-05-10T15:24:05;16.60;99.90
52495;DHT22;38405;53.212;5.660;2023-05-10T15:26:31;16.40;99.90
52495;DHT22;38405;53.212;5.660;2023-05-10T15:28:57;16.40;99.90
52495;DHT22;38405;53.212;5.660;2023-05-10T15:31:23;16.40;99.90
52495;DHT22;38405;53.212;5.660;2023-05-10T15:33:49;16.30;99.90
52495;DHT22;38405;53.212;5.660;2023-05-10T15:36:15;16.30;99.90
52495;DHT22;38405;53.212;5.660;2023-05-10T15:38:42;16.20;99.90
52495;DHT22;38405;53.212;5.660;2023-05-10T15:41:07;16.20;99.90
52495;DHT22;38405;53.212;5.660;2023-05-10T15:43:33;16.00;99.90
52495;DHT22;38405;53.212;5.660;2023-05-10T15:45:58;16.00;99.90
52495;DHT22;38405;53.212;5.660;2023-05-10T15:48:24;15.90;99.90
52495;DHT22;38405;53.212;5.660;2023-05-10T15:50:50;15.80;99.90
52495;DHT22;38405;53.212;5.660;2023-05-10T15:53:16;15.80;99.90
52495;DHT22;38405;53.212;5.660;2023-05-10T15:55:42;15.70;99.90
52495;DHT22;38405;53.212;5.660;2023-05-10T15:58:07;15.70;99.90
52495;DHT22;38405;53.212;5.660;2023-05-10T16:00:33;15.60;99.90